Time;durP1;ratioP1;P1;durP2;ratioP2;P2;SDS_P1;SDS_P2;PMS_P1;PMS_P2;Temp;Humidity;BMP_temperature;BMP_pressure;BME280_temperature;BME280_humidity;BME280_pressure;Samples;Min_cycle;Max_cycle;Signal;HPM_P1;HPM_P2
2022/10/17 00:01:52;;;;;;;;;8.00;8.00;;;;;;;;5051495;28;45566;-77
2022/10/17 00:04:17;;;;;;;;;12.00;10.33;;;;;;;;5054723;28;45332;-76
2022/10/17 00:06:42;;;;;;;;;10.00;10.00;;;;;;;;5046227;28;45379;-75
2022/10/17 00:09:08;;;;;;;;;14.00;10.33;;;;;;;;5074882;28;45476;-75
2022/10/17 00:11:34;;;;;;;;;7.67;7.67;;;;;;;;5061923;28;45427;-75
2022/10/17 00:13:59;;;;;;;;;12.00;9.00;;;;;;;;5078348;28;46717;-75
2022/10/17 00:16:26;;;;;;;;;4.00;4.00;;;;;;;;5052510;28;45375;-77
2022/10/17 00:18:51;;;;;;;;;12.33;10.33;;;;;;;;5034244;28;45805;-75
2022/10/17 00:21:17;;;;;;;;;12.67;11.00;;;;;;;;5067887;28;45453;-76
2022/10/17 00:23:42;;;;;;;;;12.00;9.00;;;;;;;;5049207;28;46386;-73
2022/10/17 00:26:08;;;;;;;;;12.33;10.33;;;;;;;;5072974;28;45388;-77
2022/10/17 00:28:34;;;;;;;;;11.33;9.67;;;;;;;;5048399;28;45375;-76
2022/10/17 00:31:00;;;;;;;;;9.67;8.67;;;;;;;;5040814;28;45904;-76
2022/10/17 00:33:26;;;;;;;;;11.67;9.00;;;;;;;;5046562;28;45811;-76
2022/10/17 00:36:01;;;;;;;;;7.33;6.33;;;;;;;;5058201;28;45284;-76
2022/10/17 00:38:26;;;;;;;;;8.00;8.00;;;;;;;;5049620;28;45831;-75
2022/10/17 00:40:52;;;;;;;;;9.00;9.00;;;;;;;;5051809;28;46097;-75
2022/10/17 00:43:17;;;;;;;;;9.33;6.33;;;;;;;;5039706;28;47352;-76
2022/10/17 00:45:42;;;;;;;;;10.33;8.67;;;;;;;;5042805;28;45558;-76
2022/10/17 00:48:10;;;;;;;;;9.67;6.00;;;;;;;;5075494;27;45442;-75
2022/10/17 00:50:37;;;;;;;;;10.67;8.00;;;;;;;;5067555;28;45463;-75
2022/10/17 00:53:04;;;;;;;;;10.67;9.33;;;;;;;;5062635;28;45559;-75
2022/10/17 00:55:32;;;;;;;;;10.33;8.00;;;;;;;;5072189;28;45462;-75
2022/10/17 00:57:59;;;;;;;;;9.33;7.33;;;;;;;;5070052;28;45722;-76
2022/10/17 01:00:24;;;;;;;;;10.33;9.33;;;;;;;;5076986;28;45764;-76
2022/10/17 01:02:50;;;;;;;;;9.67;9.33;;;;;;;;5055191;28;45277;-76
2022/10/17 01:05:15;;;;;;;;;11.33;8.00;;;;;;;;5066070;28;45955;-76
2022/10/17 01:07:41;;;;;;;;;10.00;7.00;;;;;;;;5061579;28;45484;-76
2022/10/17 01:10:07;;;;;;;;;12.67;10.67;;;;;;;;5065206;28;45534;-76
2022/10/17 01:12:40;;;;;;;;;8.00;7.67;;;;;;;;5040111;28;46247;-75
2022/10/17 01:15:25;;;;;;;;;9.33;9.33;;;;;;;;5037793;28;45483;-76
2022/10/17 01:17:54;;;;;;;;;10.33;10.33;;;;;;;;5059480;28;45444;-76
2022/10/17 01:20:22;;;;;;;;;8.67;8.00;;;;;;;;5063740;28;45970;-77
2022/10/17 01:22:56;;;;;;;;;9.67;9.33;;;;;;;;5073065;28;45409;-76
2022/10/17 01:25:40;;;;;;;;;6.00;6.00;;;;;;;;5075177;28;45304;-76
2022/10/17 01:28:17;;;;;;;;;12.00;10.67;;;;;;;;5050320;28;45486;-75
2022/10/17 01:30:55;;;;;;;;;9.33;7.00;;;;;;;;5087916;27;45647;-75
2022/10/17 01:33:23;;;;;;;;;8.67;8.00;;;;;;;;5053214;28;48714;-76
2022/10/17 01:35:55;;;;;;;;;6.33;4.33;;;;;;;;5070666;28;45940;-76
2022/10/17 01:38:22;;;;;;;;;9.33;7.33;;;;;;;;5087724;27;45465;-76
2022/10/17 01:40:57;;;;;;;;;7.00;7.00;;;;;;;;5068679;28;46125;-75
2022/10/17 01:43:25;;;;;;;;;9.33;7.67;;;;;;;;5058998;28;48278;-77
2022/10/17 01:45:52;;;;;;;;;6.67;6.67;;;;;;;;5060904;28;45403;-76
2022/10/17 01:48:21;;;;;;;;;9.33;8.00;;;;;;;;5061562;28;45529;-76
2022/10/17 01:50:50;;;;;;;;;6.67;6.67;;;;;;;;5073828;28;45308;-76
2022/10/17 01:53:20;;;;;;;;;11.67;8.00;;;;;;;;5078922;28;45781;-76
2022/10/17 01:55:47;;;;;;;;;7.67;7.67;;;;;;;;5082939;27;45225;-75
2022/10/17 01:58:15;;;;;;;;;10.33;6.33;;;;;;;;5071213;27;45773;-76
2022/10/17 02:00:42;;;;;;;;;9.00;8.00;;;;;;;;5062566;28;46421;-76
2022/10/17 02:03:10;;;;;;;;;7.33;7.00;;;;;;;;5064448;28;45580;-75
2022/10/17 02:05:37;;;;;;;;;5.67;4.33;;;;;;;;5080886;27;45423;-75
2022/10/17 02:08:03;;;;;;;;;11.00;8.33;;;;;;;;5080829;27;45387;-75
2022/10/17 02:10:31;;;;;;;;;9.33;7.67;;;;;;;;5060804;28;45554;-77
2022/10/17 02:13:08;;;;;;;;;8.67;7.33;;;;;;;;5077576;28;45429;-75
2022/10/17 02:15:52;;;;;;;;;8.33;7.33;;;;;;;;5061982;28;45913;-76
2022/10/17 02:18:37;;;;;;;;;8.00;6.67;;;;;;;;5074527;27;45480;-75
2022/10/17 02:21:07;;;;;;;;;8.67;8.67;;;;;;;;5077284;28;45825;-76
2022/10/17 02:23:39;;;;;;;;;10.00;8.00;;;;;;;;5038312;28;46424;-76
2022/10/17 02:26:33;;;;;;;;;11.00;8.33;;;;;;;;5046137;28;45733;-78
2022/10/17 02:29:03;;;;;;;;;12.67;10.00;;;;;;;;5026574;28;45460;-78
2022/10/17 02:31:33;;;;;;;;;7.33;7.00;;;;;;;;5060170;28;45310;-75
2022/10/17 02:34:01;;;;;;;;;7.33;7.33;;;;;;;;5042861;28;45648;-75
2022/10/17 02:36:29;;;;;;;;;9.33;9.33;;;;;;;;5066934;28;45356;-75
2022/10/17 02:38:55;;;;;;;;;10.00;8.00;;;;;;;;5029304;28;45804;-76
2022/10/17 02:41:21;;;;;;;;;8.50;6.00;;;;;;;;5051928;28;45612;-76
2022/10/17 02:43:48;;;;;;;;;7.00;7.00;;;;;;;;5056029;28;45352;-82
2022/10/17 02:46:20;;;;;;;;;8.50;6.75;;;;;;;;5034709;28;45637;-76
2022/10/17 02:49:04;;;;;;;;;8.33;7.00;;;;;;;;5055607;28;45459;-76
2022/10/17 02:51:39;;;;;;;;;7.00;7.00;;;;;;;;5039443;28;46261;-77
2022/10/17 02:54:04;;;;;;;;;7.00;6.50;;;;;;;;5056418;28;45508;-76
2022/10/17 02:56:36;;;;;;;;;6.50;6.50;;;;;;;;5058208;28;45375;-76
2022/10/17 02:59:02;;;;;;;;;10.33;8.00;;;;;;;;5069729;28;45338;-77
2022/10/17 03:01:28;;;;;;;;;7.50;6.25;;;;;;;;5059966;28;45430;-78
2022/10/17 03:04:11;;;;;;;;;9.00;9.00;;;;;;;;5053820;28;46205;-75
2022/10/17 03:06:37;;;;;;;;;9.25;7.50;;;;;;;;5048033;28;45339;-75
2022/10/17 03:09:02;;;;;;;;;5.67;5.67;;;;;;;;5043983;28;45620;-78
2022/10/17 03:11:27;;;;;;;;;6.00;6.00;;;;;;;;5061574;28;44832;-76
2022/10/17 03:13:53;;;;;;;;;6.50;6.50;;;;;;;;5043152;28;46445;-76
2022/10/17 03:16:18;;;;;;;;;8.50;7.00;;;;;;;;5042060;28;46473;-76
2022/10/17 03:18:43;;;;;;;;;6.50;6.00;;;;;;;;5059742;28;45540;-76
2022/10/17 03:21:09;;;;;;;;;9.67;9.67;;;;;;;;5042449;28;47237;-76
2022/10/17 03:23:34;;;;;;;;;8.00;6.50;;;;;;;;5038523;28;47104;-74
2022/10/17 03:26:02;;;;;;;;;6.67;6.67;;;;;;;;5051500;28;45409;-77
2022/10/17 03:28:27;;;;;;;;;7.00;7.00;;;;;;;;5048024;28;45432;-78
2022/10/17 03:30:52;;;;;;;;;7.00;7.00;;;;;;;;5062973;28;45379;-74
2022/10/17 03:33:18;;;;;;;;;5.50;5.50;;;;;;;;5073212;28;45561;-75
2022/10/17 03:35:43;;;;;;;;;8.25;6.00;;;;;;;;5049690;28;45348;-74
2022/10/17 03:38:08;;;;;;;;;11.00;7.00;;;;;;;;5055884;28;44769;-76
2022/10/17 03:40:33;;;;;;;;;8.33;7.00;;;;;;;;5063940;28;45283;-76
2022/10/17 03:42:59;;;;;;;;;7.33;7.33;;;;;;;;5069786;28;45934;-79
2022/10/17 03:45:24;;;;;;;;;8.00;7.00;;;;;;;;5085606;28;44727;-79
2022/10/17 03:47:49;;;;;;;;;7.67;5.67;;;;;;;;5088248;28;44724;-77
2022/10/17 03:50:19;;;;;;;;;5.00;4.67;;;;;;;;5066909;28;45903;-79
2022/10/17 03:52:49;;;;;;;;;6.67;6.67;;;;;;;;5069507;28;46746;-77
2022/10/17 03:55:14;;;;;;;;;5.00;3.67;;;;;;;;5057960;28;45503;-78
2022/10/17 03:57:40;;;;;;;;;7.00;5.75;;;;;;;;5060415;28;45395;-78
2022/10/17 04:00:05;;;;;;;;;6.00;6.00;;;;;;;;5056296;28;45494;-76
2022/10/17 04:02:31;;;;;;;;;6.25;6.00;;;;;;;;5060467;28;46590;-78
2022/10/17 04:04:56;;;;;;;;;6.00;5.25;;;;;;;;5062623;28;45797;-79
2022/10/17 04:07:22;;;;;;;;;6.67;5.67;;;;;;;;5064679;28;45340;-78
2022/10/17 04:09:48;;;;;;;;;8.25;7.00;;;;;;;;5064914;28;45642;-78
2022/10/17 04:12:13;;;;;;;;;4.50;4.50;;;;;;;;5063884;28;45998;-78
2022/10/17 04:14:38;;;;;;;;;5.25;4.00;;;;;;;;5067621;28;45395;-77
2022/10/17 04:17:04;;;;;;;;;7.00;7.00;;;;;;;;5062761;28;45495;-77
2022/10/17 04:19:29;;;;;;;;;5.00;4.00;;;;;;;;5061846;28;45836;-78
2022/10/17 04:21:54;;;;;;;;;6.50;6.50;;;;;;;;5065699;27;47160;-79
2022/10/17 04:24:20;;;;;;;;;6.67;5.33;;;;;;;;5080979;27;45375;-78
2022/10/17 04:26:47;;;;;;;;;11.75;6.50;;;;;;;;5063020;28;45477;-78
2022/10/17 04:29:13;;;;;;;;;7.00;5.00;;;;;;;;5080005;27;45640;-78
2022/10/17 04:31:38;;;;;;;;;9.00;7.00;;;;;;;;5079840;28;45683;-77
2022/10/17 04:34:03;;;;;;;;;8.00;6.25;;;;;;;;5081172;27;45398;-78
2022/10/17 04:36:28;;;;;;;;;9.33;9.33;;;;;;;;5082337;27;45323;-78
2022/10/17 04:38:54;;;;;;;;;8.50;7.00;;;;;;;;5087606;27;46103;-77
2022/10/17 04:41:19;;;;;;;;;7.75;7.25;;;;;;;;5092733;27;45341;-78
2022/10/17 04:43:45;;;;;;;;;5.75;5.75;;;;;;;;5098172;27;44752;-80
2022/10/17 04:46:11;;;;;;;;;7.75;7.00;;;;;;;;5066384;28;45395;-77
2022/10/17 04:48:37;;;;;;;;;5.75;5.75;;;;;;;;5066252;28;46834;-80
2022/10/17 04:51:04;;;;;;;;;5.00;5.00;;;;;;;;5083883;28;45896;-79
2022/10/17 04:53:34;;;;;;;;;5.00;5.00;;;;;;;;5081483;27;45418;-78
2022/10/17 04:55:59;;;;;;;;;6.33;6.00;;;;;;;;5078041;28;45337;-78
2022/10/17 04:58:27;;;;;;;;;6.75;5.00;;;;;;;;5080955;28;45403;-81
2022/10/17 05:00:57;;;;;;;;;6.25;6.25;;;;;;;;5084811;28;46278;-78
2022/10/17 05:03:22;;;;;;;;;7.00;7.00;;;;;;;;5080596;28;45824;-78
2022/10/17 05:05:47;;;;;;;;;5.50;4.50;;;;;;;;5086831;28;45399;-79
2022/10/17 05:08:12;;;;;;;;;9.00;6.33;;;;;;;;5073692;27;45391;-80
2022/10/17 05:10:39;;;;;;;;;6.75;6.00;;;;;;;;5079360;28;45333;-78
2022/10/17 05:13:04;;;;;;;;;10.00;8.67;;;;;;;;5065623;28;45381;-77
2022/10/17 05:15:30;;;;;;;;;8.00;6.67;;;;;;;;5075676;27;45333;-78
2022/10/17 05:17:56;;;;;;;;;6.00;6.00;;;;;;;;5071081;28;45377;-77
2022/10/17 05:20:22;;;;;;;;;5.67;5.67;;;;;;;;5087822;27;45960;-78
2022/10/17 05:22:50;;;;;;;;;12.00;7.67;;;;;;;;5086791;27;45275;-80
2022/10/17 05:25:15;;;;;;;;;6.67;6.33;;;;;;;;5087870;28;45635;-81
2022/10/17 05:27:41;;;;;;;;;11.67;9.00;;;;;;;;5089053;27;45277;-80
2022/10/17 05:30:07;;;;;;;;;8.67;8.00;;;;;;;;5084379;27;45447;-80
2022/10/17 05:32:32;;;;;;;;;5.33;5.33;;;;;;;;5063658;28;45624;-79
2022/10/17 05:34:57;;;;;;;;;7.00;6.00;;;;;;;;5085173;28;45383;-80
2022/10/17 05:37:22;;;;;;;;;8.67;7.00;;;;;;;;5084610;28;45362;-80
2022/10/17 05:39:48;;;;;;;;;6.00;6.00;;;;;;;;5062334;28;48187;-79
2022/10/17 05:42:13;;;;;;;;;10.00;8.67;;;;;;;;5061417;28;45165;-79
2022/10/17 05:44:40;;;;;;;;;9.00;7.00;;;;;;;;5091551;27;44699;-80
2022/10/17 05:47:07;;;;;;;;;5.00;5.00;;;;;;;;5089757;27;45385;-80
2022/10/17 05:49:32;;;;;;;;;7.33;6.00;;;;;;;;5106049;27;45317;-80
2022/10/17 05:51:57;;;;;;;;;8.67;6.00;;;;;;;;5079953;28;45868;-80
2022/10/17 05:54:23;;;;;;;;;9.00;8.67;;;;;;;;5095104;28;45481;-76
2022/10/17 05:56:52;;;;;;;;;10.00;8.33;;;;;;;;5092174;28;45346;-78
2022/10/17 05:59:17;;;;;;;;;7.75;7.50;;;;;;;;5092567;28;45754;-79
2022/10/17 06:01:42;;;;;;;;;8.33;7.00;;;;;;;;5086332;27;44756;-78
2022/10/17 06:04:08;;;;;;;;;6.67;6.67;;;;;;;;5095283;27;45704;-78
2022/10/17 06:06:35;;;;;;;;;6.00;6.00;;;;;;;;5102869;27;45131;-79
2022/10/17 06:09:00;;;;;;;;;9.00;7.33;;;;;;;;5079086;28;45341;-79
2022/10/17 06:11:25;;;;;;;;;10.00;8.67;;;;;;;;5087157;28;45465;-81
2022/10/17 06:13:51;;;;;;;;;9.67;8.00;;;;;;;;5092901;27;44775;-80
2022/10/17 06:16:16;;;;;;;;;9.33;9.33;;;;;;;;5092189;28;44826;-79
2022/10/17 06:18:42;;;;;;;;;7.00;7.00;;;;;;;;5095324;27;45453;-78
2022/10/17 06:21:08;;;;;;;;;8.00;8.00;;;;;;;;5091854;28;45433;-79
2022/10/17 06:23:34;;;;;;;;;8.67;8.67;;;;;;;;5092921;27;45462;-79
2022/10/17 06:26:00;;;;;;;;;9.00;7.67;;;;;;;;5094053;27;45281;-79
2022/10/17 06:28:25;;;;;;;;;8.00;7.00;;;;;;;;5073933;28;47120;-80
2022/10/17 06:30:51;;;;;;;;;9.00;7.00;;;;;;;;5073629;28;45144;-80
2022/10/17 06:33:16;;;;;;;;;7.33;6.33;;;;;;;;5074697;28;44820;-79
2022/10/17 06:35:42;;;;;;;;;7.00;7.00;;;;;;;;5091842;28;45543;-80
2022/10/17 06:38:07;;;;;;;;;7.00;7.00;;;;;;;;5092408;28;45213;-81
2022/10/17 06:40:32;;;;;;;;;10.00;9.00;;;;;;;;5091445;28;45403;-80
2022/10/17 06:42:58;;;;;;;;;10.00;7.33;;;;;;;;5102891;27;44855;-79
2022/10/17 06:45:23;;;;;;;;;8.00;8.00;;;;;;;;5091238;27;45175;-81
2022/10/17 06:47:49;;;;;;;;;8.67;7.67;;;;;;;;5081558;28;45796;-83
2022/10/17 06:50:14;;;;;;;;;6.00;5.33;;;;;;;;5096619;27;45405;-82
2022/10/17 06:52:39;;;;;;;;;8.67;7.67;;;;;;;;5060854;28;45376;-82
2022/10/17 06:55:05;;;;;;;;;9.67;7.33;;;;;;;;5076700;28;45928;-81
2022/10/17 06:57:33;;;;;;;;;8.67;6.00;;;;;;;;5085142;27;46258;-82
2022/10/17 06:59:58;;;;;;;;;6.33;6.33;;;;;;;;5086336;28;45468;-81
2022/10/17 07:02:24;;;;;;;;;9.00;6.67;;;;;;;;5066635;28;45539;-82
2022/10/17 07:04:49;;;;;;;;;7.00;7.00;;;;;;;;5083719;28;45621;-81
2022/10/17 07:07:15;;;;;;;;;11.00;9.33;;;;;;;;5080827;28;45252;-81
2022/10/17 07:09:40;;;;;;;;;9.67;9.00;;;;;;;;5096125;27;45377;-82
2022/10/17 07:12:07;;;;;;;;;10.00;8.00;;;;;;;;5096933;27;45607;-81
2022/10/17 07:14:32;;;;;;;;;7.00;7.00;;;;;;;;5095219;27;45453;-81
2022/10/17 07:16:58;;;;;;;;;10.00;9.67;;;;;;;;5070171;28;46252;-81
2022/10/17 07:19:26;;;;;;;;;10.00;9.00;;;;;;;;5088294;28;45406;-82
2022/10/17 07:21:51;;;;;;;;;9.00;7.00;;;;;;;;5071205;28;45383;-81
2022/10/17 07:24:16;;;;;;;;;7.33;5.33;;;;;;;;5084785;28;45356;-81
2022/10/17 07:26:45;;;;;;;;;7.00;7.00;;;;;;;;5097684;27;46451;-81
2022/10/17 07:29:13;;;;;;;;;9.33;8.00;;;;;;;;5089382;28;45343;-83
2022/10/17 07:31:39;;;;;;;;;7.00;7.00;;;;;;;;5090107;28;45433;-82
2022/10/17 07:34:07;;;;;;;;;10.00;8.50;;;;;;;;5070589;28;45340;-81
2022/10/17 07:36:32;;;;;;;;;9.00;7.25;;;;;;;;5091176;27;45554;-82
2022/10/17 07:38:58;;;;;;;;;3.00;3.00;;;;;;;;5092019;27;45320;-80
2022/10/17 07:41:23;;;;;;;;;9.00;8.00;;;;;;;;5085959;28;44807;-83
2022/10/17 07:43:49;;;;;;;;;13.67;9.33;;;;;;;;5086949;28;45469;-80
2022/10/17 07:46:14;;;;;;;;;7.00;7.00;;;;;;;;5098565;27;45389;-81
2022/10/17 07:48:39;;;;;;;;;8.75;7.00;;;;;;;;5087540;28;45737;-80
2022/10/17 07:51:06;;;;;;;;;8.50;7.75;;;;;;;;5083023;27;45384;-80
2022/10/17 07:53:33;;;;;;;;;8.75;7.75;;;;;;;;5069192;28;46911;-78
2022/10/17 07:56:02;;;;;;;;;9.50;6.00;;;;;;;;5088855;27;46284;-79
2022/10/17 07:58:28;;;;;;;;;5.25;4.25;;;;;;;;5096710;27;45508;-77
2022/10/17 08:00:53;;;;;;;;;4.00;4.00;;;;;;;;5081563;28;45442;-80
2022/10/17 08:03:19;;;;;;;;;7.00;7.00;;;;;;;;5068373;28;45678;-80
2022/10/17 08:05:44;;;;;;;;;10.25;10.00;;;;;;;;5093196;27;46329;-78
2022/10/17 08:08:09;;;;;;;;;8.00;7.75;;;;;;;;5090324;27;45496;-81
2022/10/17 08:10:35;;;;;;;;;6.75;5.75;;;;;;;;5062055;28;45377;-79
2022/10/17 08:13:01;;;;;;;;;8.25;7.25;;;;;;;;5074308;28;45522;-78
2022/10/17 08:15:26;;;;;;;;;7.00;6.25;;;;;;;;5091504;27;45481;-78
2022/10/17 08:17:54;;;;;;;;;9.25;6.00;;;;;;;;5097565;27;45513;-79
2022/10/17 08:20:19;;;;;;;;;10.25;6.25;;;;;;;;5097601;27;45363;-79
2022/10/17 08:22:50;;;;;;;;;7.00;4.50;;;;;;;;5084964;28;44814;-77
2022/10/17 08:25:15;;;;;;;;;6.50;6.25;;;;;;;;5067240;28;47053;-78
2022/10/17 08:27:41;;;;;;;;;8.50;5.50;;;;;;;;5061089;28;45417;-77
2022/10/17 08:30:06;;;;;;;;;7.00;7.00;;;;;;;;5089771;27;45460;-78
2022/10/17 08:32:32;;;;;;;;;8.67;6.00;;;;;;;;5085327;28;45465;-78
2022/10/17 08:34:57;;;;;;;;;9.50;6.00;;;;;;;;5067105;28;47508;-79
2022/10/17 08:37:22;;;;;;;;;7.25;6.25;;;;;;;;5092647;27;45503;-80
2022/10/17 08:39:48;;;;;;;;;7.75;6.50;;;;;;;;5081944;28;45362;-79
2022/10/17 08:42:26;;;;;;;;;6.00;6.00;;;;;;;;5101345;27;45495;-79
2022/10/17 08:45:09;;;;;;;;;7.00;5.25;;;;;;;;5085592;27;45426;-78
2022/10/17 08:47:37;;;;;;;;;9.00;6.00;;;;;;;;5065416;28;45585;-79
2022/10/17 08:50:04;;;;;;;;;8.50;8.00;;;;;;;;5091918;27;44771;-78
2022/10/17 08:52:41;;;;;;;;;8.50;6.75;;;;;;;;5054290;28;46444;-79
2022/10/17 08:55:13;;;;;;;;;6.75;6.75;;;;;;;;5066426;28;47507;-77
2022/10/17 08:57:38;;;;;;;;;6.25;5.50;;;;;;;;5076614;28;45378;-77
2022/10/17 09:00:11;;;;;;;;;9.75;6.50;;;;;;;;5073692;28;45457;-78
2022/10/17 09:02:55;;;;;;;;;5.75;5.00;;;;;;;;5078617;27;46191;-77
2022/10/17 09:05:27;;;;;;;;;5.50;5.50;;;;;;;;5096968;27;45812;-79
2022/10/17 09:07:52;;;;;;;;;7.25;6.25;;;;;;;;5065528;28;45415;-78
2022/10/17 09:10:21;;;;;;;;;8.00;6.75;;;;;;;;5079204;27;45480;-78
2022/10/17 09:12:50;;;;;;;;;5.00;5.00;;;;;;;;5084854;28;45359;-77
2022/10/17 09:15:18;;;;;;;;;6.75;6.50;;;;;;;;5097470;27;45433;-77
2022/10/17 09:17:53;;;;;;;;;6.00;5.00;;;;;;;;5065919;28;45385;-79
2022/10/17 09:20:20;;;;;;;;;7.50;7.25;;;;;;;;5079402;27;45406;-77
2022/10/17 09:22:57;;;;;;;;;4.50;4.50;;;;;;;;5091039;27;45347;-79
2022/10/17 09:25:22;;;;;;;;;4.25;4.25;;;;;;;;5084043;28;46263;-79
2022/10/17 09:28:11;;;;;;;;;7.00;5.00;;;;;;;;5077272;27;45304;-80
2022/10/17 09:30:44;;;;;;;;;5.25;5.25;;;;;;;;5062102;28;44855;-77
2022/10/17 09:33:15;;;;;;;;;7.00;6.75;;;;;;;;5084081;28;45481;-79
2022/10/17 09:35:41;;;;;;;;;8.50;7.50;;;;;;;;5094031;27;45571;-78
2022/10/17 09:38:12;;;;;;;;;12.67;11.33;;;;;;;;5068891;28;45384;-77
2022/10/17 09:40:39;;;;;;;;;11.25;8.00;;;;;;;;5083771;28;45497;-80
2022/10/17 09:43:06;;;;;;;;;5.67;5.33;;;;;;;;5086418;27;45529;-80
2022/10/17 09:45:36;;;;;;;;;11.00;6.00;;;;;;;;5097519;27;46176;-78
2022/10/17 09:48:12;;;;;;;;;8.00;8.00;;;;;;;;5094256;27;45496;-80
2022/10/17 09:50:38;;;;;;;;;6.00;6.00;;;;;;;;5087671;27;45463;-78
2022/10/17 09:53:22;;;;;;;;;5.25;5.25;;;;;;;;5076988;27;44791;-78
2022/10/17 09:55:56;;;;;;;;;8.00;5.00;;;;;;;;5079676;27;47029;-79
2022/10/17 09:58:21;;;;;;;;;7.50;6.50;;;;;;;;5094043;27;45488;-80
2022/10/17 10:00:47;;;;;;;;;8.25;7.25;;;;;;;;5068399;28;44993;-79
2022/10/17 10:03:26;;;;;;;;;8.00;5.00;;;;;;;;5078766;28;45374;-79
2022/10/17 10:06:24;;;;;;;;;8.00;6.25;;;;;;;;5072015;28;45405;-79
2022/10/17 10:08:51;;;;;;;;;7.00;6.00;;;;;;;;5043036;28;45828;-80
2022/10/17 10:11:17;;;;;;;;;8.50;7.00;;;;;;;;5061218;28;45769;-81
2022/10/17 10:13:42;;;;;;;;;8.50;7.25;;;;;;;;5063102;28;45954;-78
2022/10/17 10:16:14;;;;;;;;;7.50;4.50;;;;;;;;5070758;28;45943;-80
2022/10/17 10:18:39;;;;;;;;;7.00;6.00;;;;;;;;5083178;28;45490;-82
2022/10/17 10:21:05;;;;;;;;;10.00;7.33;;;;;;;;5062829;28;45374;-83
2022/10/17 10:23:32;;;;;;;;;9.00;7.75;;;;;;;;5082575;28;45659;-80
2022/10/17 10:25:58;;;;;;;;;12.50;7.00;;;;;;;;5078821;28;45537;-78
2022/10/17 10:29:08;;;;;;;;;11.00;10.00;;;;;;;;5076461;28;45414;-84
2022/10/17 10:32:19;;;;;;;;;11.00;8.75;;;;;;;;5058694;28;45734;-84
2022/10/17 10:35:24;;;;;;;;;;;;;;;;;;;;;
2022/10/17 10:38:15;;;;;;;;;;;;;;;;;;;;;
2022/10/17 10:44:33;;;;;;;;;10.00;8.25;;;;;;;;4885308;29;45419;-81
2022/10/17 10:50:33;;;;;;;;;;;;;;;;;;;;;
2022/10/17 10:53:36;;;;;;;;;10.25;8.75;;;;;;;;4923400;28;45432;-83
2022/10/17 10:56:05;;;;;;;;;10.00;9.50;;;;;;;;4961423;28;45327;-81
2022/10/17 10:58:39;;;;;;;;;10.75;8.50;;;;;;;;5064223;27;45340;-77
2022/10/17 11:01:11;;;;;;;;;8.25;5.75;;;;;;;;5082786;28;47497;-78
2022/10/17 11:07:03;;;;;;;;;8.00;6.75;;;;;;;;5057111;28;45345;-79
2022/10/17 11:09:54;;;;;;;;;4.00;4.00;;;;;;;;5093479;27;45560;-77
2022/10/17 11:12:54;;;;;;;;;5.25;5.25;;;;;;;;5085350;28;45637;-79
2022/10/17 11:18:48;;;;;;;;;6.50;4.00;;;;;;;;5092934;27;45330;-79
2022/10/17 11:25:01;;;;;;;;;2.00;2.00;;;;;;;;5041307;28;45900;-77
2022/10/17 11:27:53;;;;;;;;;3.00;3.00;;;;;;;;5028336;28;45404;-78
2022/10/17 11:31:00;;;;;;;;;;;;;;;;;;;;;
2022/10/17 11:33:59;;;;;;;;;1.25;1.25;;;;;;;;5062998;28;74842;-79
2022/10/17 11:43:15;;;;;;;;;;;;;;;;;;;;;
2022/10/17 11:46:00;;;;;;;;;;;;;;;;;;;;;
2022/10/17 11:48:49;;;;;;;;;13.25;9.50;;;;;;;;5075124;28;74514;-85
2022/10/17 11:54:33;;;;;;;;;10.50;9.00;;;;;;;;5046185;28;45337;-82
2022/10/17 11:57:17;;;;;;;;;9.75;9.75;;;;;;;;5021673;28;44793;-82
2022/10/17 12:00:00;;;;;;;;;9.00;7.75;;;;;;;;5064665;28;46561;-83
2022/10/17 12:02:39;;;;;;;;;10.50;7.25;;;;;;;;5059091;28;44767;-82
2022/10/17 12:05:36;;;;;;;;;12.00;9.25;;;;;;;;5075923;28;45367;-86
2022/10/17 12:11:33;;;;;;;;;9.75;8.50;;;;;;;;4991953;28;45711;-86
2022/10/17 12:14:30;;;;;;;;;;;;;;;;;;;;;
2022/10/17 12:17:22;;;;;;;;;11.50;11.25;;;;;;;;4989042;28;69523;-80
2022/10/17 12:23:24;;;;;;;;;;;;;;;;;;;;;
2022/10/17 12:26:13;;;;;;;;;;;;;;;;;;;;;
2022/10/17 12:29:03;;;;;;;;;8.75;7.25;;;;;;;;5065219;28;68206;-83
2022/10/17 12:31:48;;;;;;;;;;;;;;;;;;;;;
2022/10/17 12:37:54;;;;;;;;;;;;;;;;;;;;;
2022/10/17 12:40:51;;;;;;;;;;;;;;;;;;;;;
2022/10/17 12:46:43;;;;;;;;;9.00;9.00;;;;;;;;4971451;28;45278;-85
2022/10/17 12:49:33;;;;;;;;;14.75;10.00;;;;;;;;5082809;27;45544;-83
2022/10/17 12:52:20;;;;;;;;;17.67;16.00;;;;;;;;5067621;28;44809;-86
2022/10/17 12:55:22;;;;;;;;;12.67;10.67;;;;;;;;5098852;27;44792;-88
2022/10/17 13:09:56;;;;;;;;;15.50;11.00;;;;;;;;5009086;28;46020;-83
2022/10/17 13:15:45;;;;;;;;;14.00;9.75;;;;;;;;4960927;28;44818;-82
2022/10/17 13:18:45;;;;;;;;;8.00;8.00;;;;;;;;4988204;28;45461;-83
2022/10/17 13:28:34;;;;;;;;;10.50;10.25;;;;;;;;5042619;28;45473;-83
2022/10/17 13:31:13;;;;;;;;;;;;;;;;;;;;;
2022/10/17 13:33:38;;;;;;;;;7.00;7.00;;;;;;;;5007962;28;45372;-82
2022/10/17 13:40:03;;;;;;;;;8.00;7.75;;;;;;;;5022160;28;44861;-84
2022/10/17 13:42:54;;;;;;;;;9.00;8.00;;;;;;;;4954813;28;44788;-86
2022/10/17 13:45:36;;;;;;;;;9.00;8.75;;;;;;;;4993474;28;45547;-86
2022/10/17 14:22:23;;;;;;;;;11.67;9.33;;;;;;;;4938950;28;44901;-87
2022/10/17 14:28:18;;;;;;;;;13.67;12.67;;;;;;;;4912929;28;45438;-83
2022/10/17 14:31:47;;;;;;;;;;;;;;;;;;;;;
2022/10/17 14:38:20;;;;;;;;;16.67;13.67;;;;;;;;5027392;28;45336;-82
2022/10/17 14:46:49;;;;;;;;;10.33;10.33;;;;;;;;4972714;28;45626;-82
2022/10/17 14:49:48;;;;;;;;;11.50;10.25;;;;;;;;4982015;28;45502;-80
2022/10/17 15:02:15;;;;;;;;;11.33;11.33;;;;;;;;4962297;28;45380;-83
2022/10/17 15:05:22;;;;;;;;;14.33;12.67;;;;;;;;4944723;28;45508;-83
2022/10/17 15:07:50;;;;;;;;;12.33;12.33;;;;;;;;4913075;28;45660;-82
2022/10/17 15:10:40;;;;;;;;;9.00;6.50;;;;;;;;4912622;28;47001;-80
2022/10/17 15:13:11;;;;;;;;;12.67;11.33;;;;;;;;4993211;28;45512;-81
2022/10/17 15:19:10;;;;;;;;;9.00;9.00;;;;;;;;4954612;28;45391;-80
2022/10/17 15:21:38;;;;;;;;;11.00;11.00;;;;;;;;5007622;28;45454;-80
2022/10/17 15:24:05;;;;;;;;;12.00;10.67;;;;;;;;5056238;28;45351;-80
2022/10/17 15:26:32;;;;;;;;;10.33;10.00;;;;;;;;5072994;28;45356;-80
2022/10/17 15:28:58;;;;;;;;;11.67;10.33;;;;;;;;5053228;28;45352;-79
2022/10/17 15:31:24;;;;;;;;;8.50;8.00;;;;;;;;5069812;28;45419;-79
2022/10/17 15:33:53;;;;;;;;;11.00;10.00;;;;;;;;5048762;28;45439;-82
2022/10/17 15:36:27;;;;;;;;;12.67;10.33;;;;;;;;5046098;28;46015;-79
2022/10/17 15:38:54;;;;;;;;;12.00;11.00;;;;;;;;5066171;28;44997;-78
2022/10/17 15:41:20;;;;;;;;;12.33;9.33;;;;;;;;5054361;28;46710;-80
2022/10/17 15:43:46;;;;;;;;;12.33;10.33;;;;;;;;5042213;28;45349;-81
2022/10/17 15:46:15;;;;;;;;;18.00;13.00;;;;;;;;5070808;28;45140;-79
2022/10/17 15:48:41;;;;;;;;;12.50;10.50;;;;;;;;5070430;28;45328;-79
2022/10/17 15:51:07;;;;;;;;;10.67;9.67;;;;;;;;5068428;28;46176;-79
2022/10/17 15:53:32;;;;;;;;;15.33;12.00;;;;;;;;5073636;28;45445;-80
2022/10/17 15:55:58;;;;;;;;;11.33;11.33;;;;;;;;5068257;28;45727;-79
2022/10/17 15:58:23;;;;;;;;;14.33;12.33;;;;;;;;5079755;28;45509;-77
2022/10/17 16:00:48;;;;;;;;;9.67;9.00;;;;;;;;5051888;28;45618;-78
2022/10/17 16:03:14;;;;;;;;;18.00;13.67;;;;;;;;5061866;28;45157;-78
2022/10/17 16:05:39;;;;;;;;;14.25;12.00;;;;;;;;5068023;28;44876;-78
2022/10/17 16:08:04;;;;;;;;;14.33;10.67;;;;;;;;5051375;28;45471;-80
2022/10/17 16:10:33;;;;;;;;;11.67;10.67;;;;;;;;5060153;28;48015;-77
2022/10/17 16:13:21;;;;;;;;;;;;;;;;;;;;;
2022/10/17 16:32:24;;;;;;;;;11.67;10.67;;;;;;;;4932950;28;44777;-84
2022/10/17 16:34:50;;;;;;;;;13.00;12.67;;;;;;;;4910399;28;45412;-83
2022/10/17 16:37:59;;;;;;;;;9.67;9.67;;;;;;;;4932306;28;44705;-85
2022/10/17 16:43:53;;;;;;;;;14.00;12.67;;;;;;;;4947537;28;45494;-83
2022/10/17 16:46:39;;;;;;;;;17.67;14.67;;;;;;;;4938987;28;44943;-83
2022/10/17 16:49:08;;;;;;;;;16.00;14.00;;;;;;;;4964760;28;45449;-83
2022/10/17 16:54:52;;;;;;;;;10.33;10.33;;;;;;;;5092794;28;44849;-83
2022/10/17 16:57:25;;;;;;;;;13.33;10.33;;;;;;;;5089634;27;45276;-82
2022/10/17 16:59:53;;;;;;;;;15.00;12.00;;;;;;;;5099294;28;44796;-82
2022/10/17 17:02:42;;;;;;;;;16.33;11.00;;;;;;;;5096640;27;45568;-81
2022/10/17 17:05:10;;;;;;;;;14.00;10.33;;;;;;;;5089951;28;45470;-82
2022/10/17 17:07:38;;;;;;;;;11.33;9.00;;;;;;;;5093853;28;45338;-84
2022/10/17 17:10:13;;;;;;;;;8.00;8.00;;;;;;;;5099042;28;44764;-82
2022/10/17 17:12:42;;;;;;;;;12.00;10.67;;;;;;;;5089385;28;45242;-85
2022/10/17 17:18:50;;;;;;;;;10.67;10.00;;;;;;;;5061151;28;46410;-84
2022/10/17 17:21:37;;;;;;;;;16.33;12.00;;;;;;;;5046099;28;45748;-82
2022/10/17 17:27:33;;;;;;;;;13.33;12.67;;;;;;;;5050628;28;45887;-82
2022/10/17 17:30:09;;;;;;;;;15.67;14.67;;;;;;;;5063095;28;45555;-82
2022/10/17 17:32:35;;;;;;;;;30.00;28.67;;;;;;;;5056124;28;44971;-82
2022/10/17 17:35:00;;;;;;;;;11.67;11.67;;;;;;;;5089664;28;45449;-83
2022/10/17 17:37:26;;;;;;;;;11.00;9.67;;;;;;;;5083462;27;44836;-83
2022/10/17 17:39:54;;;;;;;;;18.00;12.67;;;;;;;;5096677;28;45329;-84
2022/10/17 17:42:20;;;;;;;;;12.67;11.67;;;;;;;;5068365;28;45399;-82
2022/10/17 17:44:51;;;;;;;;;12.33;12.00;;;;;;;;5090970;28;44939;-83
2022/10/17 17:47:27;;;;;;;;;14.33;12.33;;;;;;;;5085014;28;44944;-82
2022/10/17 17:49:54;;;;;;;;;15.33;12.67;;;;;;;;5076129;28;45386;-80
2022/10/17 17:52:19;;;;;;;;;14.00;13.00;;;;;;;;5075097;28;44692;-80